sensor_id;sensor_type;location;lat;lon;timestamp;pressure;altitude;pressure_sealevel;temperature;humidity
58761;BME280;44529;47.464;19.014;2023-06-10T00:01:26;99802.78;;;17.75;100.00
58761;BME280;44529;47.464;19.014;2023-06-10T00:04:30;99796.91;;;17.76;100.00
58761;BME280;44529;47.464;19.014;2023-06-10T00:07:32;99799.62;;;17.73;100.00
58761;BME280;44529;47.464;19.014;2023-06-10T00:10:36;99795.50;;;17.59;100.00
58761;BME280;44529;47.464;19.014;2023-06-10T00:13:39;99798.56;;;17.54;100.00
58761;BME280;44529;47.464;19.014;2023-06-10T00:16:42;99798.50;;;17.51;100.00
58761;BME280;44529;47.464;19.014;2023-06-10T00:19:47;99798.56;;;17.54;100.00
58761;BME280;44529;47.464;19.014;2023-06-10T00:22:50;99794.34;;;17.60;100.00
58761;BME280;44529;47.464;19.014;2023-06-10T00:25:53;99792.88;;;17.67;100.00
58761;BME280;44529;47.464;19.014;2023-06-10T00:28:55;99792.12;;;17.70;100.00
58761;BME280;44529;47.464;19.014;2023-06-10T00:31:57;99788.69;;;17.73;100.00
58761;BME280;44529;47.464;19.014;2023-06-10T00:35:00;99792.59;;;17.72;100.00
58761;BME280;44529;47.464;19.014;2023-06-10T00:38:03;99790.94;;;17.71;100.00
58761;BME280;44529;47.464;19.014;2023-06-10T00:41:05;99793.97;;;17.62;100.00
58761;BME280;44529;47.464;19.014;2023-06-10T00:44:08;99797.06;;;17.60;100.00
58761;BME280;44529;47.464;19.014;2023-06-10T00:47:11;99794.84;;;17.70;100.00
58761;BME280;44529;47.464;19.014;2023-06-10T00:50:13;99799.12;;;17.67;100.00
58761;BME280;44529;47.464;19.014;2023-06-10T00:53:16;99804.59;;;17.67;100.00
58761;BME280;44529;47.464;19.014;2023-06-10T00:56:18;99805.69;;;17.63;100.00
58761;BME280;44529;47.464;19.014;2023-06-10T00:59:21;99806.91;;;17.65;100.00
58761;BME280;44529;47.464;19.014;2023-06-10T01:02:23;99808.81;;;17.61;100.00
58761;BME280;44529;47.464;19.014;2023-06-10T01:05:26;99812.72;;;17.64;100.00
58761;BME280;44529;47.464;19.014;2023-06-10T01:08:36;99815.06;;;17.62;100.00
58761;BME280;44529;47.464;19.014;2023-06-10T01:11:53;99809.19;;;17.59;100.00
58761;BME280;44529;47.464;19.014;2023-06-10T01:14:58;99806.34;;;17.52;100.00
58761;BME280;44529;47.464;19.014;2023-06-10T01:18:03;99810.22;;;17.51;100.00
58761;BME280;44529;47.464;19.014;2023-06-10T01:21:05;99809.44;;;17.51;100.00
58761;BME280;44529;47.464;19.014;2023-06-10T01:24:10;99810.19;;;17.48;100.00
58761;BME280;44529;47.464;19.014;2023-06-10T01:27:15;99808.50;;;17.40;100.00
58761;BME280;44529;47.464;19.014;2023-06-10T01:30:22;99812.03;;;17.40;100.00
58761;BME280;44529;47.464;19.014;2023-06-10T01:33:34;99811.25;;;17.40;100.00
58761;BME280;44529;47.464;19.014;2023-06-10T01:36:40;99816.69;;;17.40;100.00
58761;BME280;44529;47.464;19.014;2023-06-10T01:39:45;99813.03;;;17.32;100.00
58761;BME280;44529;47.464;19.014;2023-06-10T01:42:48;99804.06;;;17.31;100.00
58761;BME280;44529;47.464;19.014;2023-06-10T01:45:51;99803.34;;;17.35;100.00
58761;BME280;44529;47.464;19.014;2023-06-10T01:48:53;99805.31;;;17.38;100.00
58761;BME280;44529;47.464;19.014;2023-06-10T01:51:55;99803.75;;;17.37;100.00
58761;BME280;44529;47.464;19.014;2023-06-10T01:54:58;99807.59;;;17.32;100.00
58761;BME280;44529;47.464;19.014;2023-06-10T01:58:00;99804.44;;;17.30;100.00
58761;BME280;44529;47.464;19.014;2023-06-10T02:01:03;99807.47;;;17.25;100.00
58761;BME280;44529;47.464;19.014;2023-06-10T02:04:06;99803.81;;;17.14;100.00
58761;BME280;44529;47.464;19.014;2023-06-10T02:07:08;99807.38;;;17.18;100.00
58761;BME280;44529;47.464;19.014;2023-06-10T02:10:10;99804.22;;;17.16;100.00
58761;BME280;44529;47.464;19.014;2023-06-10T02:13:13;99802.34;;;16.97;100.00
58761;BME280;44529;47.464;19.014;2023-06-10T02:16:15;99804.69;;;16.95;100.00
58761;BME280;44529;47.464;19.014;2023-06-10T02:19:19;99812.13;;;16.98;100.00
58761;BME280;44529;47.464;19.014;2023-06-10T02:22:23;99814.84;;;16.98;100.00
58761;BME280;44529;47.464;19.014;2023-06-10T02:25:26;99809.75;;;16.96;100.00
58761;BME280;44529;47.464;19.014;2023-06-10T02:28:28;99812.19;;;17.01;100.00
58761;BME280;44529;47.464;19.014;2023-06-10T02:31:32;99815.94;;;16.93;100.00
58761;BME280;44529;47.464;19.014;2023-06-10T02:34:38;99808.59;;;16.97;100.00
58761;BME280;44529;47.464;19.014;2023-06-10T02:37:41;99817.53;;;16.94;100.00
58761;BME280;44529;47.464;19.014;2023-06-10T02:40:43;99811.22;;;16.90;100.00
58761;BME280;44529;47.464;19.014;2023-06-10T02:43:46;99811.53;;;16.85;100.00
58761;BME280;44529;47.464;19.014;2023-06-10T02:46:49;99811.53;;;16.85;100.00
58761;BME280;44529;47.464;19.014;2023-06-10T02:49:52;99813.72;;;16.76;100.00
58761;BME280;44529;47.464;19.014;2023-06-10T02:52:54;99819.03;;;16.69;100.00
58761;BME280;44529;47.464;19.014;2023-06-10T02:55:56;99815.06;;;16.66;100.00
58761;BME280;44529;47.464;19.014;2023-06-10T02:58:59;99820.16;;;16.68;100.00
58761;BME280;44529;47.464;19.014;2023-06-10T03:02:02;99818.69;;;16.70;100.00
58761;BME280;44529;47.464;19.014;2023-06-10T03:05:06;99821.75;;;16.69;100.00
58761;BME280;44529;47.464;19.014;2023-06-10T03:08:14;99815.50;;;16.68;100.00
58761;BME280;44529;47.464;19.014;2023-06-10T03:11:16;99817.06;;;16.69;100.00
58761;BME280;44529;47.464;19.014;2023-06-10T03:14:19;99817.41;;;16.68;100.00
58761;BME280;44529;47.464;19.014;2023-06-10T03:17:21;99821.66;;;16.65;100.00
58761;BME280;44529;47.464;19.014;2023-06-10T03:20:24;99820.47;;;16.63;100.00
58761;BME280;44529;47.464;19.014;2023-06-10T03:23:27;99822.88;;;16.68;100.00
58761;BME280;44529;47.464;19.014;2023-06-10T03:26:30;99824.34;;;16.62;100.00
58761;BME280;44529;47.464;19.014;2023-06-10T03:29:33;99830.53;;;16.59;100.00
58761;BME280;44529;47.464;19.014;2023-06-10T03:32:35;99827.75;;;16.55;100.00
58761;BME280;44529;47.464;19.014;2023-06-10T03:35:39;99828.94;;;16.58;100.00
58761;BME280;44529;47.464;19.014;2023-06-10T03:38:42;99826.22;;;16.58;100.00
58761;BME280;44529;47.464;19.014;2023-06-10T03:41:44;99830.16;;;16.60;100.00
58761;BME280;44529;47.464;19.014;2023-06-10T03:44:47;99832.87;;;16.60;100.00
58761;BME280;44529;47.464;19.014;2023-06-10T03:47:49;99828.94;;;16.58;100.00
58761;BME280;44529;47.464;19.014;2023-06-10T03:50:53;99826.63;;;16.60;100.00
58761;BME280;44529;47.464;19.014;2023-06-10T03:53:55;99821.62;;;16.62;100.00
58761;BME280;44529;47.464;19.014;2023-06-10T03:56:58;99823.53;;;16.61;100.00
58761;BME280;44529;47.464;19.014;2023-06-10T04:00:00;99825.81;;;16.56;100.00
58761;BME280;44529;47.464;19.014;2023-06-10T04:03:15;99822.56;;;16.50;100.00
58761;BME280;44529;47.464;19.014;2023-06-10T04:06:18;99830.88;;;16.57;100.00
58761;BME280;44529;47.464;19.014;2023-06-10T04:09:21;99827.50;;;16.64;100.00
58761;BME280;44529;47.464;19.014;2023-06-10T04:12:23;99824.41;;;16.65;100.00
58761;BME280;44529;47.464;19.014;2023-06-10T04:15:26;99831.53;;;16.70;100.00
58761;BME280;44529;47.464;19.014;2023-06-10T04:18:28;99820.66;;;16.73;100.00
58761;BME280;44529;47.464;19.014;2023-06-10T04:21:31;99822.97;;;16.71;100.00
58761;BME280;44529;47.464;19.014;2023-06-10T04:24:35;99820.63;;;16.70;100.00
58761;BME280;44529;47.464;19.014;2023-06-10T04:27:38;99818.22;;;16.68;100.00
58761;BME280;44529;47.464;19.014;2023-06-10T04:30:40;99826.75;;;16.67;100.00
58761;BME280;44529;47.464;19.014;2023-06-10T04:33:43;99832.22;;;16.67;100.00
58761;BME280;44529;47.464;19.014;2023-06-10T04:36:46;99820.09;;;16.64;100.00
58761;BME280;44529;47.464;19.014;2023-06-10T04:39:48;99823.63;;;16.65;100.00
58761;BME280;44529;47.464;19.014;2023-06-10T04:42:52;99822.47;;;16.66;100.00
58761;BME280;44529;47.464;19.014;2023-06-10T04:45:55;99819.81;;;16.69;100.00
58761;BME280;44529;47.464;19.014;2023-06-10T04:48:57;99820.63;;;16.70;100.00
58761;BME280;44529;47.464;19.014;2023-06-10T04:52:00;99823.41;;;16.73;100.00
58761;BME280;44529;47.464;19.014;2023-06-10T04:55:02;99821.53;;;16.77;100.00
58761;BME280;44529;47.464;19.014;2023-06-10T04:58:05;99822.41;;;16.82;100.00
58761;BME280;44529;47.464;19.014;2023-06-10T05:01:07;99826.34;;;16.84;100.00
58761;BME280;44529;47.464;19.014;2023-06-10T05:04:09;99828.75;;;16.89;100.00
58761;BME280;44529;47.464;19.014;2023-06-10T05:07:12;99828.75;;;16.89;100.00
58761;BME280;44529;47.464;19.014;2023-06-10T05:10:14;99825.28;;;16.92;100.00
58761;BME280;44529;47.464;19.014;2023-06-10T05:13:17;99826.44;;;16.91;100.00
58761;BME280;44529;47.464;19.014;2023-06-10T05:16:19;99832.00;;;16.95;100.00
58761;BME280;44529;47.464;19.014;2023-06-10T05:19:22;99833.97;;;16.98;100.00
58761;BME280;44529;47.464;19.014;2023-06-10T05:22:28;99839.94;;;17.03;100.00
58761;BME280;44529;47.464;19.014;2023-06-10T05:25:31;99842.38;;;17.09;100.00
58761;BME280;44529;47.464;19.014;2023-06-10T05:28:34;99843.19;;;17.13;100.00
58761;BME280;44529;47.464;19.014;2023-06-10T05:31:37;99845.50;;;17.11;100.00
58761;BME280;44529;47.464;19.014;2023-06-10T05:34:39;99842.72;;;17.07;100.00
58761;BME280;44529;47.464;19.014;2023-06-10T05:37:41;99845.09;;;17.09;100.00
58761;BME280;44529;47.464;19.014;2023-06-10T05:40:45;99842.47;;;17.16;100.00
58761;BME280;44529;47.464;19.014;2023-06-10T05:43:48;99845.56;;;17.14;100.00
58761;BME280;44529;47.464;19.014;2023-06-10T05:46:51;99844.12;;;17.20;100.00
58761;BME280;44529;47.464;19.014;2023-06-10T05:49:53;99843.38;;;17.23;100.00
58761;BME280;44529;47.464;19.014;2023-06-10T05:52:55;99837.50;;;17.21;100.00
58761;BME280;44529;47.464;19.014;2023-06-10T05:55:58;99842.59;;;17.23;100.00
58761;BME280;44529;47.464;19.014;2023-06-10T05:59:00;99842.22;;;17.24;100.00
58761;BME280;44529;47.464;19.014;2023-06-10T06:02:03;99841.44;;;17.24;100.00
58761;BME280;44529;47.464;19.014;2023-06-10T06:05:06;99843.38;;;17.23;100.00
58761;BME280;44529;47.464;19.014;2023-06-10T06:08:09;99843.78;;;17.25;100.00
58761;BME280;44529;47.464;19.014;2023-06-10T06:11:12;99846.19;;;17.27;100.00
58761;BME280;44529;47.464;19.014;2023-06-10T06:14:14;99840.72;;;17.27;100.00
58761;BME280;44529;47.464;19.014;2023-06-10T06:17:17;99842.66;;;17.26;100.00
58761;BME280;44529;47.464;19.014;2023-06-10T06:20:20;99841.53;;;17.31;100.00
58761;BME280;44529;47.464;19.014;2023-06-10T06:23:22;99845.91;;;17.36;100.00
58761;BME280;44529;47.464;19.014;2023-06-10T06:26:24;99844.03;;;17.40;100.00
58761;BME280;44529;47.464;19.014;2023-06-10T06:29:27;99853.06;;;17.44;100.00
58761;BME280;44529;47.464;19.014;2023-06-10T06:32:32;99857.59;;;17.59;100.00
58761;BME280;44529;47.464;19.014;2023-06-10T06:35:35;99866.22;;;17.61;100.00
58761;BME280;44529;47.464;19.014;2023-06-10T06:38:37;99869.16;;;17.72;100.00
58761;BME280;44529;47.464;19.014;2023-06-10T06:41:40;99873.97;;;17.82;100.00
58761;BME280;44529;47.464;19.014;2023-06-10T06:44:42;99870.97;;;17.91;100.00
58761;BME280;44529;47.464;19.014;2023-06-10T06:47:45;99867.91;;;17.96;100.00
58761;BME280;44529;47.464;19.014;2023-06-10T06:50:47;99868.81;;;18.03;100.00
58761;BME280;44529;47.464;19.014;2023-06-10T06:53:50;99876.31;;;18.10;100.00
58761;BME280;44529;47.464;19.014;2023-06-10T06:56:53;99882.62;;;18.14;100.00
58761;BME280;44529;47.464;19.014;2023-06-10T06:59:55;99879.00;;;18.06;100.00
58761;BME280;44529;47.464;19.014;2023-06-10T07:02:58;99872.75;;;18.06;100.00
58761;BME280;44529;47.464;19.014;2023-06-10T07:06:01;99872.44;;;18.11;100.00
58761;BME280;44529;47.464;19.014;2023-06-10T07:09:04;99869.34;;;18.16;100.00
58761;BME280;44529;47.464;19.014;2023-06-10T07:12:07;99868.22;;;18.21;100.00
58761;BME280;44529;47.464;19.014;2023-06-10T07:15:10;99874.31;;;18.37;100.00
58761;BME280;44529;47.464;19.014;2023-06-10T07:18:15;99877.94;;;18.48;100.00
58761;BME280;44529;47.464;19.014;2023-06-10T07:21:18;99875.75;;;18.61;100.00
58761;BME280;44529;47.464;19.014;2023-06-10T07:24:20;99875.19;;;18.78;100.00
58761;BME280;44529;47.464;19.014;2023-06-10T07:27:23;99881.56;;;18.89;100.00
58761;BME280;44529;47.464;19.014;2023-06-10T07:30:26;99876.94;;;18.97;100.00
58761;BME280;44529;47.464;19.014;2023-06-10T07:33:28;99880.97;;;19.10;100.00
58761;BME280;44529;47.464;19.014;2023-06-10T07:36:31;99879.47;;;19.16;100.00
58761;BME280;44529;47.464;19.014;2023-06-10T07:39:33;99878.78;;;19.27;100.00
58761;BME280;44529;47.464;19.014;2023-06-10T07:42:36;99883.91;;;19.32;100.00
58761;BME280;44529;47.464;19.014;2023-06-10T07:45:42;99882.75;;;19.36;100.00
58761;BME280;44529;47.464;19.014;2023-06-10T07:48:46;99884.38;;;19.44;100.00
58761;BME280;44529;47.464;19.014;2023-06-10T07:51:48;99887.16;;;19.48;100.00
58761;BME280;44529;47.464;19.014;2023-06-10T07:54:50;99881.72;;;19.52;100.00
58761;BME280;44529;47.464;19.014;2023-06-10T07:57:53;99891.88;;;19.51;100.00
58761;BME280;44529;47.464;19.014;2023-06-10T08:00:56;99896.97;;;19.49;100.00
58761;BME280;44529;47.464;19.014;2023-06-10T08:03:58;99896.31;;;19.59;100.00
58761;BME280;44529;47.464;19.014;2023-06-10T08:07:01;99893.22;;;19.64;100.00
58761;BME280;44529;47.464;19.014;2023-06-10T08:10:05;99898.31;;;19.69;100.00
58761;BME280;44529;47.464;19.014;2023-06-10T08:13:08;99890.56;;;19.79;100.00
58761;BME280;44529;47.464;19.014;2023-06-10T08:16:11;99895.31;;;19.89;100.00
58761;BME280;44529;47.464;19.014;2023-06-10T08:19:13;99893.06;;;20.05;100.00
58761;BME280;44529;47.464;19.014;2023-06-10T08:22:16;99890.28;;;19.98;100.00
58761;BME280;44529;47.464;19.014;2023-06-10T08:25:18;99886.37;;;20.02;100.00
58761;BME280;44529;47.464;19.014;2023-06-10T08:28:20;99879.00;;;20.17;100.00
58761;BME280;44529;47.464;19.014;2023-06-10T08:31:23;99883.53;;;20.61;100.00
58761;BME280;44529;47.464;19.014;2023-06-10T08:34:26;99875.78;;;21.20;100.00
58761;BME280;44529;47.464;19.014;2023-06-10T08:37:28;99876.97;;;21.55;95.07
58761;BME280;44529;47.464;19.014;2023-06-10T08:40:32;99878.47;;;21.99;86.39
58761;BME280;44529;47.464;19.014;2023-06-10T08:43:46;99871.19;;;22.51;86.10
58761;BME280;44529;47.464;19.014;2023-06-10T08:46:51;99879.41;;;22.62;80.53
58761;BME280;44529;47.464;19.014;2023-06-10T08:49:55;99873.50;;;22.60;82.67
58761;BME280;44529;47.464;19.014;2023-06-10T08:53:02;99872.44;;;22.43;80.35
58761;BME280;44529;47.464;19.014;2023-06-10T08:56:06;99863.69;;;22.59;76.87
58761;BME280;44529;47.464;19.014;2023-06-10T08:59:10;99858.69;;;23.06;79.01
58761;BME280;44529;47.464;19.014;2023-06-10T09:02:15;99848.94;;;23.84;78.66
58761;BME280;44529;47.464;19.014;2023-06-10T09:05:17;99856.87;;;24.46;73.33
58761;BME280;44529;47.464;19.014;2023-06-10T09:08:21;99847.81;;;24.73;72.42
58761;BME280;44529;47.464;19.014;2023-06-10T09:11:24;99848.53;;;25.07;71.51
58761;BME280;44529;47.464;19.014;2023-06-10T09:14:27;99841.25;;;25.17;70.44
58761;BME280;44529;47.464;19.014;2023-06-10T09:17:29;99832.47;;;25.46;68.15
58761;BME280;44529;47.464;19.014;2023-06-10T09:20:32;99830.34;;;25.53;64.83
58761;BME280;44529;47.464;19.014;2023-06-10T09:23:35;99826.09;;;25.69;62.29
58761;BME280;44529;47.464;19.014;2023-06-10T09:26:38;99829.47;;;25.56;65.36
58761;BME280;44529;47.464;19.014;2023-06-10T09:29:51;99822.03;;;25.77;62.35
58761;BME280;44529;47.464;19.014;2023-06-10T09:32:59;99821.47;;;25.62;61.91
58761;BME280;44529;47.464;19.014;2023-06-10T09:36:02;99826.19;;;24.68;64.61
58761;BME280;44529;47.464;19.014;2023-06-10T09:39:06;99819.72;;;23.86;66.38
58761;BME280;44529;47.464;19.014;2023-06-10T09:42:18;99816.75;;;24.04;71.11
58761;BME280;44529;47.464;19.014;2023-06-10T09:45:21;99820.19;;;24.12;71.44
58761;BME280;44529;47.464;19.014;2023-06-10T09:48:24;99824.63;;;24.67;65.33
58761;BME280;44529;47.464;19.014;2023-06-10T09:51:27;99820.63;;;24.95;63.78
58761;BME280;44529;47.464;19.014;2023-06-10T09:54:31;99817.28;;;24.53;67.14
58761;BME280;44529;47.464;19.014;2023-06-10T09:57:34;99821.62;;;24.23;66.48
58761;BME280;44529;47.464;19.014;2023-06-10T10:00:38;99814.47;;;23.95;68.21
58761;BME280;44529;47.464;19.014;2023-06-10T10:03:49;99813.38;;;23.48;71.88
58761;BME280;44529;47.464;19.014;2023-06-10T10:06:52;99819.13;;;23.27;73.71
58761;BME280;44529;47.464;19.014;2023-06-10T10:09:55;99816.00;;;23.21;74.04
58761;BME280;44529;47.464;19.014;2023-06-10T10:12:57;99811.41;;;23.07;75.61
58761;BME280;44529;47.464;19.014;2023-06-10T10:16:11;99815.56;;;22.74;77.04
58761;BME280;44529;47.464;19.014;2023-06-10T10:19:18;99815.63;;;22.63;80.52
58761;BME280;44529;47.464;19.014;2023-06-10T10:22:26;99813.38;;;22.44;82.08
58761;BME280;44529;47.464;19.014;2023-06-10T10:25:37;99824.44;;;22.37;82.76
58761;BME280;44529;47.464;19.014;2023-06-10T10:28:48;99826.09;;;22.20;85.29
58761;BME280;44529;47.464;19.014;2023-06-10T10:31:56;99821.34;;;22.24;86.01
58761;BME280;44529;47.464;19.014;2023-06-10T10:35:09;99813.94;;;22.03;83.04
58761;BME280;44529;47.464;19.014;2023-06-10T10:38:14;99809.63;;;21.99;88.01
58761;BME280;44529;47.464;19.014;2023-06-10T10:41:19;99817.09;;;21.95;87.16
58761;BME280;44529;47.464;19.014;2023-06-10T10:44:23;99809.69;;;21.84;85.53
58761;BME280;44529;47.464;19.014;2023-06-10T10:47:27;99808.13;;;21.80;85.76
58761;BME280;44529;47.464;19.014;2023-06-10T10:50:31;99801.81;;;21.86;89.18
58761;BME280;44529;47.464;19.014;2023-06-10T10:53:33;99797.03;;;22.01;87.86
58761;BME280;44529;47.464;19.014;2023-06-10T10:56:36;99799.00;;;22.01;84.74
58761;BME280;44529;47.464;19.014;2023-06-10T10:59:53;99785.59;;;22.17;79.82
58761;BME280;44529;47.464;19.014;2023-06-10T11:06:14;99784.78;;;22.86;75.68
58761;BME280;44529;47.464;19.014;2023-06-10T11:09:27;99776.12;;;23.29;74.60
58761;BME280;44529;47.464;19.014;2023-06-10T11:12:51;99778.25;;;23.90;73.93
58761;BME280;44529;47.464;19.014;2023-06-10T11:15:59;99770.00;;;24.17;71.15
58761;BME280;44529;47.464;19.014;2023-06-10T11:19:01;99770.13;;;24.10;69.82
58761;BME280;44529;47.464;19.014;2023-06-10T11:22:06;99766.88;;;23.84;68.40
58761;BME280;44529;47.464;19.014;2023-06-10T11:25:13;99762.97;;;24.12;65.70
58761;BME280;44529;47.464;19.014;2023-06-10T11:28:20;99764.87;;;24.46;66.10
58761;BME280;44529;47.464;19.014;2023-06-10T11:31:27;99767.84;;;24.58;65.32
58761;BME280;44529;47.464;19.014;2023-06-10T11:34:29;99764.66;;;24.60;66.09
58761;BME280;44529;47.464;19.014;2023-06-10T11:37:32;99759.72;;;24.75;67.54
58761;BME280;44529;47.464;19.014;2023-06-10T11:40:36;99757.97;;;24.84;67.86
58761;BME280;44529;47.464;19.014;2023-06-10T11:43:45;99763.44;;;24.88;67.33
58761;BME280;44529;47.464;19.014;2023-06-10T11:46:48;99744.09;;;25.11;68.75
58761;BME280;44529;47.464;19.014;2023-06-10T11:50:01;99747.09;;;25.21;63.17
58761;BME280;44529;47.464;19.014;2023-06-10T11:53:03;99739.16;;;25.23;63.98
58761;BME280;44529;47.464;19.014;2023-06-10T11:56:05;99742.03;;;25.16;67.21
58761;BME280;44529;47.464;19.014;2023-06-10T11:59:08;99746.19;;;24.80;69.09
58761;BME280;44529;47.464;19.014;2023-06-10T12:02:17;99754.59;;;24.46;67.77
58761;BME280;44529;47.464;19.014;2023-06-10T12:05:21;99756.56;;;24.19;69.55
58761;BME280;44529;47.464;19.014;2023-06-10T12:08:24;99752.38;;;23.76;73.78
58761;BME280;44529;47.464;19.014;2023-06-10T12:11:27;99750.06;;;23.71;71.35
58761;BME280;44529;47.464;19.014;2023-06-10T12:14:52;99752.78;;;23.75;72.88
58761;BME280;44529;47.464;19.014;2023-06-10T12:18:02;99747.00;;;23.96;71.97
58761;BME280;44529;47.464;19.014;2023-06-10T12:21:15;99732.16;;;24.14;68.54
58761;BME280;44529;47.464;19.014;2023-06-10T12:24:19;99739.69;;;24.40;69.31
58761;BME280;44529;47.464;19.014;2023-06-10T12:27:21;99737.91;;;24.53;67.59
58761;BME280;44529;47.464;19.014;2023-06-10T12:30:25;99723.09;;;24.40;63.98
58761;BME280;44529;47.464;19.014;2023-06-10T12:33:30;99726.66;;;24.41;62.15
58761;BME280;44529;47.464;19.014;2023-06-10T12:36:33;99714.91;;;24.33;63.99
58761;BME280;44529;47.464;19.014;2023-06-10T12:39:36;99711.78;;;24.35;62.32
58761;BME280;44529;47.464;19.014;2023-06-10T12:42:39;99707.16;;;24.51;62.51
58761;BME280;44529;47.464;19.014;2023-06-10T12:45:42;99701.44;;;24.62;65.19
58761;BME280;44529;47.464;19.014;2023-06-10T12:48:51;99700.12;;;24.70;64.55
58761;BME280;44529;47.464;19.014;2023-06-10T12:51:53;99694.91;;;24.76;62.87
58761;BME280;44529;47.464;19.014;2023-06-10T12:54:56;99684.28;;;24.74;62.68
58761;BME280;44529;47.464;19.014;2023-06-10T12:58:00;99687.56;;;24.89;61.22
58761;BME280;44529;47.464;19.014;2023-06-10T13:01:03;99681.16;;;24.92;60.59
58761;BME280;44529;47.464;19.014;2023-06-10T13:04:06;99681.16;;;24.92;61.86
58761;BME280;44529;47.464;19.014;2023-06-10T13:07:10;99674.06;;;24.91;58.85
58761;BME280;44529;47.464;19.014;2023-06-10T13:10:16;99673.06;;;25.05;60.37
58761;BME280;44529;47.464;19.014;2023-06-10T13:13:19;99674.56;;;25.29;60.19
58761;BME280;44529;47.464;19.014;2023-06-10T13:16:21;99666.34;;;25.26;61.68
58761;BME280;44529;47.464;19.014;2023-06-10T13:19:24;99675.41;;;25.06;61.93
58761;BME280;44529;47.464;19.014;2023-06-10T13:22:29;99665.94;;;25.04;61.22
58761;BME280;44529;47.464;19.014;2023-06-10T13:25:32;99671.47;;;25.04;64.36
58761;BME280;44529;47.464;19.014;2023-06-10T13:28:35;99660.16;;;25.18;62.04
58761;BME280;44529;47.464;19.014;2023-06-10T13:31:37;99662.16;;;25.18;62.28
58761;BME280;44529;47.464;19.014;2023-06-10T13:34:39;99670.69;;;25.03;62.90
58761;BME280;44529;47.464;19.014;2023-06-10T13:37:42;99663.56;;;24.82;65.22
58761;BME280;44529;47.464;19.014;2023-06-10T13:40:44;99665.63;;;24.55;66.00
58761;BME280;44529;47.464;19.014;2023-06-10T13:43:47;99666.69;;;24.38;64.76
58761;BME280;44529;47.464;19.014;2023-06-10T13:46:49;99671.88;;;24.32;62.21
58761;BME280;44529;47.464;19.014;2023-06-10T13:49:52;99669.81;;;24.13;64.30
58761;BME280;44529;47.464;19.014;2023-06-10T13:52:54;99671.69;;;23.92;66.78
58761;BME280;44529;47.464;19.014;2023-06-10T13:55:57;99682.94;;;23.78;66.24
58761;BME280;44529;47.464;19.014;2023-06-10T13:58:59;99680.72;;;23.66;65.10
58761;BME280;44529;47.464;19.014;2023-06-10T14:02:05;99691.09;;;23.55;67.14
58761;BME280;44529;47.464;19.014;2023-06-10T14:05:08;99680.97;;;23.44;66.71
58761;BME280;44529;47.464;19.014;2023-06-10T14:08:11;99668.25;;;23.50;66.85
58761;BME280;44529;47.464;19.014;2023-06-10T14:11:14;99671.84;;;23.47;66.52
58761;BME280;44529;47.464;19.014;2023-06-10T14:14:16;99667.41;;;23.57;68.29
58761;BME280;44529;47.464;19.014;2023-06-10T14:17:19;99676.03;;;23.63;69.33
58761;BME280;44529;47.464;19.014;2023-06-10T14:20:21;99672.50;;;23.59;69.44
58761;BME280;44529;47.464;19.014;2023-06-10T14:23:27;99670.97;;;23.54;69.37
58761;BME280;44529;47.464;19.014;2023-06-10T14:26:29;99667.34;;;23.64;70.37
58761;BME280;44529;47.464;19.014;2023-06-10T14:29:33;99667.28;;;23.68;68.45
58761;BME280;44529;47.464;19.014;2023-06-10T14:32:35;99661.06;;;23.57;69.59
58761;BME280;44529;47.464;19.014;2023-06-10T14:35:38;99665.09;;;23.52;70.28
58761;BME280;44529;47.464;19.014;2023-06-10T14:38:40;99665.47;;;23.54;68.06
58761;BME280;44529;47.464;19.014;2023-06-10T14:41:43;99655.88;;;23.66;67.52
58761;BME280;44529;47.464;19.014;2023-06-10T14:44:45;99666.16;;;23.65;67.41
58761;BME280;44529;47.464;19.014;2023-06-10T14:47:48;99660.28;;;23.60;68.90
58761;BME280;44529;47.464;19.014;2023-06-10T14:50:50;99666.25;;;23.55;69.45
58761;BME280;44529;47.464;19.014;2023-06-10T14:53:53;99670.19;;;23.54;69.17
58761;BME280;44529;47.464;19.014;2023-06-10T14:56:55;99674.97;;;23.49;70.06
58761;BME280;44529;47.464;19.014;2023-06-10T14:59:58;99678.66;;;23.39;69.61
58761;BME280;44529;47.464;19.014;2023-06-10T15:03:00;99679.91;;;23.31;72.13
58761;BME280;44529;47.464;19.014;2023-06-10T15:06:03;99682.31;;;23.29;70.46
58761;BME280;44529;47.464;19.014;2023-06-10T15:09:05;99678.00;;;23.28;71.91
58761;BME280;44529;47.464;19.014;2023-06-10T15:12:08;99680.37;;;23.26;71.89
58761;BME280;44529;47.464;19.014;2023-06-10T15:15:10;99663.84;;;23.26;72.10
58761;BME280;44529;47.464;19.014;2023-06-10T15:18:13;99666.00;;;23.42;71.68
58761;BME280;44529;47.464;19.014;2023-06-10T15:21:15;99670.00;;;23.37;72.05
58761;BME280;44529;47.464;19.014;2023-06-10T15:24:18;99682.47;;;23.49;71.85
58761;BME280;44529;47.464;19.014;2023-06-10T15:27:21;99691.88;;;23.55;72.42
58761;BME280;44529;47.464;19.014;2023-06-10T15:30:23;99696.53;;;23.62;74.33
58761;BME280;44529;47.464;19.014;2023-06-10T15:33:25;99684.62;;;23.68;73.32
58761;BME280;44529;47.464;19.014;2023-06-10T15:36:28;99677.50;;;23.71;74.02
58761;BME280;44529;47.464;19.014;2023-06-10T15:39:30;99691.94;;;23.82;72.88
58761;BME280;44529;47.464;19.014;2023-06-10T15:42:33;99676.22;;;23.79;73.04
58761;BME280;44529;47.464;19.014;2023-06-10T15:45:35;99684.12;;;23.77;73.90
58761;BME280;44529;47.464;19.014;2023-06-10T15:48:38;99682.47;;;23.83;74.46
58761;BME280;44529;47.464;19.014;2023-06-10T15:51:40;99688.06;;;23.76;76.79
58761;BME280;44529;47.464;19.014;2023-06-10T15:54:50;99694.56;;;23.62;79.70
58761;BME280;44529;47.464;19.014;2023-06-10T15:57:52;99695.78;;;23.58;79.00